sensor_id;sensor_type;location;lat;lon;timestamp;pressure;altitude;pressure_sealevel;temperature;humidity
75247;BME280;63844;50.042;19.224;2023-10-08T00:00:39;98635.95;;;16.98;69.17
75247;BME280;63844;50.042;19.224;2023-10-08T00:02:42;98629.98;;;16.97;69.22
75247;BME280;63844;50.042;19.224;2023-10-08T00:04:18;98624.36;;;16.98;69.32
75247;BME280;63844;50.042;19.224;2023-10-08T00:05:55;98630.92;;;16.96;69.17
75247;BME280;63844;50.042;19.224;2023-10-08T00:07:31;98625.59;;;16.96;69.44
75247;BME280;63844;50.042;19.224;2023-10-08T00:09:08;98629.02;;;16.94;69.48
75247;BME280;63844;50.042;19.224;2023-10-08T00:10:45;98633.05;;;16.95;69.44
75247;BME280;63844;50.042;19.224;2023-10-08T00:12:21;98635.44;;;16.94;69.53
75247;BME280;63844;50.042;19.224;2023-10-08T00:13:57;98634.81;;;16.93;69.75
75247;BME280;63844;50.042;19.224;2023-10-08T00:15:36;98638.23;;;16.93;69.96
75247;BME280;63844;50.042;19.224;2023-10-08T00:17:13;98640.02;;;16.93;69.94
75247;BME280;63844;50.042;19.224;2023-10-08T00:18:49;98640.69;;;16.92;70.20
75247;BME280;63844;50.042;19.224;2023-10-08T00:20:26;98643.38;;;16.92;70.39
75247;BME280;63844;50.042;19.224;2023-10-08T00:22:11;98643.23;;;16.92;70.55
75247;BME280;63844;50.042;19.224;2023-10-08T00:23:49;98645.28;;;16.92;70.65
75247;BME280;63844;50.042;19.224;2023-10-08T00:25:29;98651.11;;;16.91;71.14
75247;BME280;63844;50.042;19.224;2023-10-08T00:27:08;98650.27;;;16.89;71.84
75247;BME280;63844;50.042;19.224;2023-10-08T00:28:44;98650.98;;;16.83;72.66
75247;BME280;63844;50.042;19.224;2023-10-08T00:30:23;98653.71;;;16.79;72.89
75247;BME280;63844;50.042;19.224;2023-10-08T00:32:00;98656.35;;;16.72;73.40
75247;BME280;63844;50.042;19.224;2023-10-08T00:33:47;98661.52;;;16.63;74.43
75247;BME280;63844;50.042;19.224;2023-10-08T00:35:24;98661.89;;;16.55;75.38
75247;BME280;63844;50.042;19.224;2023-10-08T00:37:00;98662.95;;;16.48;76.05
75247;BME280;63844;50.042;19.224;2023-10-08T00:38:37;98665.33;;;16.40;76.71
75247;BME280;63844;50.042;19.224;2023-10-08T00:40:20;98667.81;;;16.28;77.31
75247;BME280;63844;50.042;19.224;2023-10-08T00:41:57;98668.23;;;16.18;78.47
75247;BME280;63844;50.042;19.224;2023-10-08T00:43:41;98671.58;;;16.09;78.82
75247;BME280;63844;50.042;19.224;2023-10-08T00:45:18;98672.51;;;16.00;79.58
75247;BME280;63844;50.042;19.224;2023-10-08T00:46:59;98675.95;;;15.91;80.74
75247;BME280;63844;50.042;19.224;2023-10-08T00:48:41;98675.19;;;15.80;81.42
75247;BME280;63844;50.042;19.224;2023-10-08T00:50:20;98674.71;;;15.72;82.12
75247;BME280;63844;50.042;19.224;2023-10-08T00:51:59;98679.92;;;15.64;83.12
75247;BME280;63844;50.042;19.224;2023-10-08T00:53:39;98674.03;;;15.58;83.14
75247;BME280;63844;50.042;19.224;2023-10-08T00:55:16;98676.38;;;15.48;83.71
75247;BME280;63844;50.042;19.224;2023-10-08T00:57:04;98675.59;;;15.43;83.77
75247;BME280;63844;50.042;19.224;2023-10-08T00:58:43;98670.71;;;15.38;84.32
75247;BME280;63844;50.042;19.224;2023-10-08T01:00:23;98666.76;;;15.30;85.40
75247;BME280;63844;50.042;19.224;2023-10-08T01:02:08;98667.67;;;15.24;85.66
75247;BME280;63844;50.042;19.224;2023-10-08T01:03:51;98668.71;;;15.18;86.17
75247;BME280;63844;50.042;19.224;2023-10-08T01:05:27;98668.02;;;15.14;86.47
75247;BME280;63844;50.042;19.224;2023-10-08T01:07:24;98671.58;;;15.12;86.38
75247;BME280;63844;50.042;19.224;2023-10-08T01:09:01;98675.65;;;15.11;86.75
75247;BME280;63844;50.042;19.224;2023-10-08T01:10:53;98665.90;;;15.08;87.00
75247;BME280;63844;50.042;19.224;2023-10-08T01:12:36;98674.63;;;15.04;87.87
75247;BME280;63844;50.042;19.224;2023-10-08T01:14:25;98671.54;;;14.98;88.79
75247;BME280;63844;50.042;19.224;2023-10-08T01:16:08;98671.16;;;14.93;89.27
75247;BME280;63844;50.042;19.224;2023-10-08T01:17:46;98672.68;;;14.92;89.00
75247;BME280;63844;50.042;19.224;2023-10-08T01:19:34;98673.04;;;14.88;89.70
75247;BME280;63844;50.042;19.224;2023-10-08T01:21:16;98677.47;;;14.82;90.76
75247;BME280;63844;50.042;19.224;2023-10-08T01:23:09;98674.23;;;14.81;90.98
75247;BME280;63844;50.042;19.224;2023-10-08T01:24:46;98680.98;;;14.75;91.22
75247;BME280;63844;50.042;19.224;2023-10-08T01:26:25;98675.21;;;14.69;92.10
75247;BME280;63844;50.042;19.224;2023-10-08T01:28:06;98671.14;;;14.67;91.06
75247;BME280;63844;50.042;19.224;2023-10-08T01:29:51;98671.74;;;14.64;92.98
75247;BME280;63844;50.042;19.224;2023-10-08T01:31:28;98673.70;;;14.60;93.40
75247;BME280;63844;50.042;19.224;2023-10-08T01:33:04;98678.36;;;14.58;93.45
75247;BME280;63844;50.042;19.224;2023-10-08T01:34:41;98679.27;;;14.56;93.66
75247;BME280;63844;50.042;19.224;2023-10-08T01:36:21;98679.23;;;14.52;93.44
75247;BME280;63844;50.042;19.224;2023-10-08T01:37:59;98677.37;;;14.50;93.44
75247;BME280;63844;50.042;19.224;2023-10-08T01:39:36;98672.07;;;14.48;93.45
75247;BME280;63844;50.042;19.224;2023-10-08T01:41:13;98666.69;;;14.44;93.85
75247;BME280;63844;50.042;19.224;2023-10-08T01:42:56;98671.89;;;14.44;92.88
75247;BME280;63844;50.042;19.224;2023-10-08T01:44:43;98667.95;;;14.42;94.12
75247;BME280;63844;50.042;19.224;2023-10-08T01:46:22;98671.27;;;14.41;94.17
75247;BME280;63844;50.042;19.224;2023-10-08T01:47:59;98674.10;;;14.39;93.83
75247;BME280;63844;50.042;19.224;2023-10-08T01:49:35;98675.23;;;14.32;94.16
75247;BME280;63844;50.042;19.224;2023-10-08T01:51:13;98672.96;;;14.28;94.54
75247;BME280;63844;50.042;19.224;2023-10-08T01:53:00;98672.48;;;14.23;95.36
75247;BME280;63844;50.042;19.224;2023-10-08T01:54:37;98663.52;;;14.19;95.14
75247;BME280;63844;50.042;19.224;2023-10-08T01:56:14;98657.33;;;14.17;95.08
75247;BME280;63844;50.042;19.224;2023-10-08T01:57:50;98650.48;;;14.13;95.70
75247;BME280;63844;50.042;19.224;2023-10-08T01:59:31;98654.51;;;14.10;95.73
75247;BME280;63844;50.042;19.224;2023-10-08T02:01:07;98662.06;;;14.03;95.97
75247;BME280;63844;50.042;19.224;2023-10-08T02:02:50;98657.75;;;13.97;96.61
75247;BME280;63844;50.042;19.224;2023-10-08T02:04:27;98663.38;;;13.90;97.06
75247;BME280;63844;50.042;19.224;2023-10-08T02:06:03;98670.52;;;13.87;97.64
75247;BME280;63844;50.042;19.224;2023-10-08T02:07:42;98669.75;;;13.86;97.10
75247;BME280;63844;50.042;19.224;2023-10-08T02:09:21;98671.63;;;13.81;98.08
75247;BME280;63844;50.042;19.224;2023-10-08T02:11:03;98675.31;;;13.73;98.22
75247;BME280;63844;50.042;19.224;2023-10-08T02:12:40;98684.05;;;13.62;98.79
75247;BME280;63844;50.042;19.224;2023-10-08T02:14:17;98698.56;;;13.37;96.20
75247;BME280;63844;50.042;19.224;2023-10-08T02:15:54;98701.36;;;13.24;94.10
75247;BME280;63844;50.042;19.224;2023-10-08T02:17:31;98707.65;;;13.10;94.11
75247;BME280;63844;50.042;19.224;2023-10-08T02:19:08;98710.50;;;12.90;93.30
75247;BME280;63844;50.042;19.224;2023-10-08T02:20:46;98711.85;;;12.67;93.73
75247;BME280;63844;50.042;19.224;2023-10-08T02:22:24;98706.91;;;12.53;94.52
75247;BME280;63844;50.042;19.224;2023-10-08T02:24:01;98710.28;;;12.46;94.67
75247;BME280;63844;50.042;19.224;2023-10-08T02:25:40;98715.37;;;12.40;95.15
75247;BME280;63844;50.042;19.224;2023-10-08T02:27:16;98722.13;;;12.23;94.29
75247;BME280;63844;50.042;19.224;2023-10-08T02:28:53;98722.54;;;12.00;93.80
75247;BME280;63844;50.042;19.224;2023-10-08T02:30:30;98723.35;;;11.94;93.65
75247;BME280;63844;50.042;19.224;2023-10-08T02:32:07;98725.14;;;11.86;93.75
75247;BME280;63844;50.042;19.224;2023-10-08T02:33:44;98725.73;;;11.78;93.10
75247;BME280;63844;50.042;19.224;2023-10-08T02:35:20;98731.80;;;11.73;93.23
75247;BME280;63844;50.042;19.224;2023-10-08T02:36:58;98733.86;;;11.67;93.45
75247;BME280;63844;50.042;19.224;2023-10-08T02:38:35;98727.52;;;11.54;93.36
75247;BME280;63844;50.042;19.224;2023-10-08T02:40:14;98732.44;;;11.43;93.71
75247;BME280;63844;50.042;19.224;2023-10-08T02:42:02;98740.84;;;11.32;93.88
75247;BME280;63844;50.042;19.224;2023-10-08T02:43:38;98741.52;;;11.28;94.44
75247;BME280;63844;50.042;19.224;2023-10-08T02:45:18;98740.70;;;11.24;94.44
75247;BME280;63844;50.042;19.224;2023-10-08T02:46:54;98743.44;;;11.21;94.39
75247;BME280;63844;50.042;19.224;2023-10-08T02:48:31;98735.39;;;11.22;95.07
75247;BME280;63844;50.042;19.224;2023-10-08T02:50:08;98746.55;;;11.22;94.90
75247;BME280;63844;50.042;19.224;2023-10-08T02:51:46;98761.95;;;11.17;94.07
75247;BME280;63844;50.042;19.224;2023-10-08T02:53:22;98769.13;;;11.11;94.68
75247;BME280;63844;50.042;19.224;2023-10-08T02:55:02;98762.20;;;11.07;94.33
75247;BME280;63844;50.042;19.224;2023-10-08T02:56:40;98767.45;;;10.97;93.62
75247;BME280;63844;50.042;19.224;2023-10-08T02:58:16;98776.24;;;10.85;94.17
75247;BME280;63844;50.042;19.224;2023-10-08T02:59:55;98770.58;;;10.83;94.45
75247;BME280;63844;50.042;19.224;2023-10-08T03:01:31;98777.24;;;10.79;93.99
75247;BME280;63844;50.042;19.224;2023-10-08T03:03:10;98779.72;;;10.71;94.22
75247;BME280;63844;50.042;19.224;2023-10-08T03:04:51;98775.95;;;10.67;95.06
75247;BME280;63844;50.042;19.224;2023-10-08T03:06:28;98779.22;;;10.64;94.70
75247;BME280;63844;50.042;19.224;2023-10-08T03:08:08;98785.04;;;10.56;95.14
75247;BME280;63844;50.042;19.224;2023-10-08T03:09:48;98780.48;;;10.55;95.46
75247;BME280;63844;50.042;19.224;2023-10-08T03:11:26;98779.07;;;10.58;95.83
75247;BME280;63844;50.042;19.224;2023-10-08T03:13:03;98785.65;;;10.57;95.86
75247;BME280;63844;50.042;19.224;2023-10-08T03:14:41;98787.29;;;10.49;95.35
75247;BME280;63844;50.042;19.224;2023-10-08T03:16:26;98791.80;;;10.45;95.06
75247;BME280;63844;50.042;19.224;2023-10-08T03:18:10;98802.63;;;10.37;95.20
75247;BME280;63844;50.042;19.224;2023-10-08T03:19:50;98804.85;;;10.33;95.42
75247;BME280;63844;50.042;19.224;2023-10-08T03:21:28;98808.52;;;10.31;95.22
75247;BME280;63844;50.042;19.224;2023-10-08T03:23:14;98803.77;;;10.28;95.56
75247;BME280;63844;50.042;19.224;2023-10-08T03:25:00;98804.45;;;10.28;95.79
75247;BME280;63844;50.042;19.224;2023-10-08T03:26:51;98807.74;;;10.29;96.35
75247;BME280;63844;50.042;19.224;2023-10-08T03:28:31;98806.81;;;10.27;95.86
75247;BME280;63844;50.042;19.224;2023-10-08T03:30:11;98805.38;;;10.25;96.02
75247;BME280;63844;50.042;19.224;2023-10-08T03:31:50;98811.93;;;10.19;95.57
75247;BME280;63844;50.042;19.224;2023-10-08T03:33:29;98812.66;;;10.13;96.36
75247;BME280;63844;50.042;19.224;2023-10-08T03:35:06;98807.68;;;10.08;96.62
75247;BME280;63844;50.042;19.224;2023-10-08T03:36:47;98801.79;;;9.99;96.62
75247;BME280;63844;50.042;19.224;2023-10-08T03:38:26;98799.61;;;9.92;96.94
75247;BME280;63844;50.042;19.224;2023-10-08T03:40:20;98798.13;;;9.93;97.01
75247;BME280;63844;50.042;19.224;2023-10-08T03:42:23;98808.52;;;9.96;96.86
75247;BME280;63844;50.042;19.224;2023-10-08T03:44:00;98815.95;;;9.90;96.77
75247;BME280;63844;50.042;19.224;2023-10-08T03:45:41;98832.95;;;9.87;96.73
75247;BME280;63844;50.042;19.224;2023-10-08T03:47:38;98847.31;;;9.87;96.44
75247;BME280;63844;50.042;19.224;2023-10-08T03:49:15;98856.66;;;9.87;96.66
75247;BME280;63844;50.042;19.224;2023-10-08T03:50:57;98865.90;;;9.84;96.46
75247;BME280;63844;50.042;19.224;2023-10-08T03:52:42;98878.02;;;9.82;97.07
75247;BME280;63844;50.042;19.224;2023-10-08T03:54:21;98889.36;;;9.82;96.98
75247;BME280;63844;50.042;19.224;2023-10-08T03:56:06;98888.42;;;9.80;97.13
75247;BME280;63844;50.042;19.224;2023-10-08T03:57:42;98880.47;;;9.80;97.48
75247;BME280;63844;50.042;19.224;2023-10-08T03:59:20;98869.55;;;9.80;98.15
75247;BME280;63844;50.042;19.224;2023-10-08T04:01:06;98877.95;;;9.78;98.01
75247;BME280;63844;50.042;19.224;2023-10-08T04:02:46;98880.63;;;9.78;98.18
75247;BME280;63844;50.042;19.224;2023-10-08T04:04:30;98884.73;;;9.77;97.77
75247;BME280;63844;50.042;19.224;2023-10-08T04:06:26;98889.11;;;9.69;97.98
75247;BME280;63844;50.042;19.224;2023-10-08T04:08:12;98893.21;;;9.66;98.39
75247;BME280;63844;50.042;19.224;2023-10-08T04:10:01;98895.13;;;9.58;98.14
75247;BME280;63844;50.042;19.224;2023-10-08T04:11:46;98897.40;;;9.56;98.41
75247;BME280;63844;50.042;19.224;2023-10-08T04:13:32;98904.90;;;9.52;98.12
75247;BME280;63844;50.042;19.224;2023-10-08T04:15:09;98908.86;;;9.51;98.29
75247;BME280;63844;50.042;19.224;2023-10-08T04:16:46;98920.77;;;9.50;98.11
75247;BME280;63844;50.042;19.224;2023-10-08T04:18:23;98915.57;;;9.45;99.08
75247;BME280;63844;50.042;19.224;2023-10-08T04:19:59;98923.57;;;9.47;99.53
75247;BME280;63844;50.042;19.224;2023-10-08T04:21:36;98929.11;;;9.46;98.82
75247;BME280;63844;50.042;19.224;2023-10-08T04:23:12;98936.23;;;9.48;98.78
75247;BME280;63844;50.042;19.224;2023-10-08T04:24:57;98939.32;;;9.44;97.96
75247;BME280;63844;50.042;19.224;2023-10-08T04:26:35;98951.61;;;9.39;97.81
75247;BME280;63844;50.042;19.224;2023-10-08T04:28:12;98954.88;;;9.38;98.10
75247;BME280;63844;50.042;19.224;2023-10-08T04:29:50;98965.55;;;9.36;97.46
75247;BME280;63844;50.042;19.224;2023-10-08T04:31:27;98971.86;;;9.37;97.79
75247;BME280;63844;50.042;19.224;2023-10-08T04:33:05;98975.45;;;9.37;98.15
75247;BME280;63844;50.042;19.224;2023-10-08T04:34:51;98984.60;;;9.37;98.06
75247;BME280;63844;50.042;19.224;2023-10-08T04:36:32;98984.30;;;9.36;97.95
75247;BME280;63844;50.042;19.224;2023-10-08T04:38:09;98985.05;;;9.35;98.12
75247;BME280;63844;50.042;19.224;2023-10-08T04:39:47;98987.31;;;9.33;97.51
75247;BME280;63844;50.042;19.224;2023-10-08T04:41:30;98983.99;;;9.30;97.97
75247;BME280;63844;50.042;19.224;2023-10-08T04:43:07;98984.42;;;9.28;97.56
75247;BME280;63844;50.042;19.224;2023-10-08T04:44:46;98990.05;;;9.29;98.21
75247;BME280;63844;50.042;19.224;2023-10-08T04:46:23;98995.95;;;9.25;97.63
75247;BME280;63844;50.042;19.224;2023-10-08T04:48:14;98994.39;;;9.21;97.93
75247;BME280;63844;50.042;19.224;2023-10-08T04:49:56;98996.78;;;9.22;97.77
75247;BME280;63844;50.042;19.224;2023-10-08T04:51:33;99007.79;;;9.21;98.05
75247;BME280;63844;50.042;19.224;2023-10-08T04:53:19;99009.84;;;9.19;98.47
75247;BME280;63844;50.042;19.224;2023-10-08T04:55:04;99012.85;;;9.16;98.32
75247;BME280;63844;50.042;19.224;2023-10-08T04:56:51;99010.69;;;9.14;98.05
75247;BME280;63844;50.042;19.224;2023-10-08T04:58:29;99017.16;;;9.15;98.04
75247;BME280;63844;50.042;19.224;2023-10-08T05:00:10;99019.98;;;9.15;98.51
75247;BME280;63844;50.042;19.224;2023-10-08T05:01:51;99024.65;;;9.11;98.08
75247;BME280;63844;50.042;19.224;2023-10-08T05:03:51;99029.88;;;9.09;97.58
75247;BME280;63844;50.042;19.224;2023-10-08T05:05:43;99033.23;;;9.06;97.32
75247;BME280;63844;50.042;19.224;2023-10-08T05:07:44;99039.98;;;9.06;97.74
75247;BME280;63844;50.042;19.224;2023-10-08T05:09:20;99048.94;;;9.04;98.08
75247;BME280;63844;50.042;19.224;2023-10-08T05:10:56;99060.33;;;9.05;98.09
75247;BME280;63844;50.042;19.224;2023-10-08T05:12:38;99069.28;;;9.03;98.01
75247;BME280;63844;50.042;19.224;2023-10-08T05:14:24;99073.21;;;9.02;98.08
75247;BME280;63844;50.042;19.224;2023-10-08T05:16:09;99074.16;;;9.01;98.04
75247;BME280;63844;50.042;19.224;2023-10-08T05:18:09;99090.83;;;9.03;98.36
75247;BME280;63844;50.042;19.224;2023-10-08T05:19:50;99089.08;;;9.03;98.31
75247;BME280;63844;50.042;19.224;2023-10-08T05:21:45;99096.26;;;9.04;98.62
75247;BME280;63844;50.042;19.224;2023-10-08T05:23:41;99085.83;;;9.07;98.68
75247;BME280;63844;50.042;19.224;2023-10-08T05:25:43;99077.58;;;9.03;98.22
75247;BME280;63844;50.042;19.224;2023-10-08T05:27:40;99073.55;;;9.05;98.05
75247;BME280;63844;50.042;19.224;2023-10-08T05:29:25;99072.83;;;9.06;98.08
75247;BME280;63844;50.042;19.224;2023-10-08T05:31:15;99067.38;;;9.02;97.76
75247;BME280;63844;50.042;19.224;2023-10-08T05:32:55;99071.98;;;9.02;97.95
75247;BME280;63844;50.042;19.224;2023-10-08T05:35:05;99094.92;;;9.02;98.19
75247;BME280;63844;50.042;19.224;2023-10-08T05:37:08;99105.55;;;9.05;97.51
75247;BME280;63844;50.042;19.224;2023-10-08T05:38:51;99112.85;;;9.04;97.13
75247;BME280;63844;50.042;19.224;2023-10-08T05:40:36;99127.00;;;9.03;97.45
75247;BME280;63844;50.042;19.224;2023-10-08T05:42:31;99130.17;;;9.03;97.98
75247;BME280;63844;50.042;19.224;2023-10-08T05:44:08;99130.36;;;9.06;97.98
75247;BME280;63844;50.042;19.224;2023-10-08T05:45:50;99132.14;;;9.09;97.51
75247;BME280;63844;50.042;19.224;2023-10-08T05:47:49;99142.98;;;9.14;98.27
75247;BME280;63844;50.042;19.224;2023-10-08T05:49:49;99153.95;;;9.13;98.04
75247;BME280;63844;50.042;19.224;2023-10-08T05:51:49;99160.82;;;9.14;97.80
75247;BME280;63844;50.042;19.224;2023-10-08T05:53:25;99163.48;;;9.16;97.92
75247;BME280;63844;50.042;19.224;2023-10-08T05:55:19;99170.06;;;9.18;97.43
75247;BME280;63844;50.042;19.224;2023-10-08T05:57:07;99186.73;;;9.21;97.49
75247;BME280;63844;50.042;19.224;2023-10-08T05:58:51;99183.71;;;9.18;97.49
75247;BME280;63844;50.042;19.224;2023-10-08T06:00:47;99186.41;;;9.20;97.62
75247;BME280;63844;50.042;19.224;2023-10-08T06:02:31;99189.42;;;9.23;97.01
75247;BME280;63844;50.042;19.224;2023-10-08T06:04:10;99190.55;;;9.25;97.25
75247;BME280;63844;50.042;19.224;2023-10-08T06:06:19;99197.56;;;9.26;97.30
75247;BME280;63844;50.042;19.224;2023-10-08T06:07:55;99190.02;;;9.28;96.90
75247;BME280;63844;50.042;19.224;2023-10-08T06:09:33;99193.23;;;9.31;97.25
75247;BME280;63844;50.042;19.224;2023-10-08T06:11:13;99192.96;;;9.32;96.94
75247;BME280;63844;50.042;19.224;2023-10-08T06:13:13;99191.21;;;9.32;97.00
75247;BME280;63844;50.042;19.224;2023-10-08T06:14:52;99205.39;;;9.31;96.20
75247;BME280;63844;50.042;19.224;2023-10-08T06:16:43;99207.98;;;9.32;96.52
75247;BME280;63844;50.042;19.224;2023-10-08T06:18:23;99212.17;;;9.33;96.95
75247;BME280;63844;50.042;19.224;2023-10-08T06:20:02;99213.66;;;9.35;96.79
75247;BME280;63844;50.042;19.224;2023-10-08T06:21:46;99220.46;;;9.36;96.70
75247;BME280;63844;50.042;19.224;2023-10-08T06:23:22;99225.48;;;9.38;96.69
75247;BME280;63844;50.042;19.224;2023-10-08T06:25:02;99235.47;;;9.39;96.65
75247;BME280;63844;50.042;19.224;2023-10-08T06:26:53;99237.95;;;9.39;96.52
75247;BME280;63844;50.042;19.224;2023-10-08T06:28:32;99242.17;;;9.42;96.68
75247;BME280;63844;50.042;19.224;2023-10-08T06:30:12;99243.23;;;9.43;96.69
75247;BME280;63844;50.042;19.224;2023-10-08T06:31:54;99241.11;;;9.46;96.44
75247;BME280;63844;50.042;19.224;2023-10-08T06:33:32;99239.50;;;9.46;96.12
75247;BME280;63844;50.042;19.224;2023-10-08T06:35:10;99238.24;;;9.47;96.17
75247;BME280;63844;50.042;19.224;2023-10-08T06:36:55;99241.11;;;9.49;96.28
75247;BME280;63844;50.042;19.224;2023-10-08T06:38:32;99244.76;;;9.53;96.54
75247;BME280;63844;50.042;19.224;2023-10-08T06:40:10;99250.16;;;9.54;95.82
75247;BME280;63844;50.042;19.224;2023-10-08T06:42:07;99248.85;;;9.55;95.40
75247;BME280;63844;50.042;19.224;2023-10-08T06:43:45;99246.74;;;9.58;95.39
75247;BME280;63844;50.042;19.224;2023-10-08T06:45:43;99248.13;;;9.59;95.42
75247;BME280;63844;50.042;19.224;2023-10-08T06:47:20;99255.33;;;9.59;95.07
75247;BME280;63844;50.042;19.224;2023-10-08T06:49:03;99261.01;;;9.59;94.95
75247;BME280;63844;50.042;19.224;2023-10-08T06:50:48;99267.10;;;9.61;95.05
75247;BME280;63844;50.042;19.224;2023-10-08T06:52:24;99282.69;;;9.60;95.11
75247;BME280;63844;50.042;19.224;2023-10-08T06:54:02;99286.40;;;9.60;95.41
75247;BME280;63844;50.042;19.224;2023-10-08T06:55:41;99284.48;;;9.60;95.14
75247;BME280;63844;50.042;19.224;2023-10-08T06:57:18;99291.08;;;9.59;95.44
75247;BME280;63844;50.042;19.224;2023-10-08T06:58:56;99298.74;;;9.58;95.04
75247;BME280;63844;50.042;19.224;2023-10-08T07:00:35;99295.69;;;9.58;95.55
75247;BME280;63844;50.042;19.224;2023-10-08T07:02:14;99292.73;;;9.57;95.39
75247;BME280;63844;50.042;19.224;2023-10-08T07:03:52;99296.71;;;9.56;95.35
75247;BME280;63844;50.042;19.224;2023-10-08T07:05:33;99299.02;;;9.56;95.80
75247;BME280;63844;50.042;19.224;2023-10-08T07:07:16;99295.44;;;9.57;95.45
75247;BME280;63844;50.042;19.224;2023-10-08T07:08:55;99290.52;;;9.59;95.47
75247;BME280;63844;50.042;19.224;2023-10-08T07:10:32;99283.71;;;9.60;95.25
75247;BME280;63844;50.042;19.224;2023-10-08T07:12:10;99296.10;;;9.60;95.26
75247;BME280;63844;50.042;19.224;2023-10-08T07:13:50;99301.16;;;9.61;95.87
75247;BME280;63844;50.042;19.224;2023-10-08T07:15:29;99300.89;;;9.63;95.92
75247;BME280;63844;50.042;19.224;2023-10-08T07:17:06;99307.86;;;9.69;95.88
75247;BME280;63844;50.042;19.224;2023-10-08T07:18:44;99317.49;;;9.70;95.30
75247;BME280;63844;50.042;19.224;2023-10-08T07:20:31;99316.83;;;9.69;95.43
75247;BME280;63844;50.042;19.224;2023-10-08T07:22:14;99327.35;;;9.71;95.29
75247;BME280;63844;50.042;19.224;2023-10-08T07:24:05;99329.27;;;9.71;95.74
75247;BME280;63844;50.042;19.224;2023-10-08T07:25:46;99333.12;;;9.72;94.97
75247;BME280;63844;50.042;19.224;2023-10-08T07:27:28;99329.42;;;9.72;95.28
75247;BME280;63844;50.042;19.224;2023-10-08T07:29:08;99324.45;;;9.68;95.06
75247;BME280;63844;50.042;19.224;2023-10-08T07:30:45;99332.65;;;9.71;95.09
75247;BME280;63844;50.042;19.224;2023-10-08T07:32:21;99330.62;;;9.72;94.84
75247;BME280;63844;50.042;19.224;2023-10-08T07:33:58;99335.64;;;9.71;94.48
75247;BME280;63844;50.042;19.224;2023-10-08T07:35:51;99332.64;;;9.71;94.43
75247;BME280;63844;50.042;19.224;2023-10-08T07:37:33;99339.35;;;9.74;94.44
75247;BME280;63844;50.042;19.224;2023-10-08T07:39:10;99343.96;;;9.77;94.52
75247;BME280;63844;50.042;19.224;2023-10-08T07:41:01;99345.20;;;9.77;94.41
75247;BME280;63844;50.042;19.224;2023-10-08T07:42:38;99343.96;;;9.80;94.05
75247;BME280;63844;50.042;19.224;2023-10-08T07:44:14;99338.05;;;9.84;93.37
75247;BME280;63844;50.042;19.224;2023-10-08T07:45:50;99339.47;;;9.87;93.19
75247;BME280;63844;50.042;19.224;2023-10-08T07:47:29;99342.40;;;9.91;92.80
75247;BME280;63844;50.042;19.224;2023-10-08T07:49:06;99344.23;;;9.94;93.23
75247;BME280;63844;50.042;19.224;2023-10-08T07:50:44;99351.44;;;9.94;92.94
75247;BME280;63844;50.042;19.224;2023-10-08T07:52:24;99348.44;;;9.91;92.63
75247;BME280;63844;50.042;19.224;2023-10-08T07:54:01;99356.95;;;9.87;92.54
75247;BME280;63844;50.042;19.224;2023-10-08T07:55:37;99359.38;;;9.85;92.51
75247;BME280;63844;50.042;19.224;2023-10-08T07:57:14;99360.05;;;9.86;92.87
75247;BME280;63844;50.042;19.224;2023-10-08T07:59:02;99360.56;;;9.83;92.61
75247;BME280;63844;50.042;19.224;2023-10-08T08:00:44;99368.29;;;9.84;92.97
75247;BME280;63844;50.042;19.224;2023-10-08T08:02:33;99376.27;;;9.81;92.72
75247;BME280;63844;50.042;19.224;2023-10-08T08:04:12;99373.23;;;9.81;92.95
75247;BME280;63844;50.042;19.224;2023-10-08T08:05:58;99377.91;;;9.80;92.59
75247;BME280;63844;50.042;19.224;2023-10-08T08:07:37;99379.14;;;9.77;92.81
75247;BME280;63844;50.042;19.224;2023-10-08T08:09:14;99386.30;;;9.75;92.47
75247;BME280;63844;50.042;19.224;2023-10-08T08:10:55;99387.41;;;9.71;92.35
75247;BME280;63844;50.042;19.224;2023-10-08T08:12:34;99390.80;;;9.71;92.34
75247;BME280;63844;50.042;19.224;2023-10-08T08:14:12;99393.16;;;9.73;92.37
75247;BME280;63844;50.042;19.224;2023-10-08T08:15:54;99398.91;;;9.71;92.25
75247;BME280;63844;50.042;19.224;2023-10-08T08:17:34;99395.69;;;9.72;91.90
75247;BME280;63844;50.042;19.224;2023-10-08T08:19:10;99399.34;;;9.76;92.15
75247;BME280;63844;50.042;19.224;2023-10-08T08:20:49;99402.23;;;9.84;92.06
75247;BME280;63844;50.042;19.224;2023-10-08T08:22:25;99398.84;;;9.88;91.63
75247;BME280;63844;50.042;19.224;2023-10-08T08:24:07;99404.07;;;9.92;91.78
75247;BME280;63844;50.042;19.224;2023-10-08T08:25:44;99405.67;;;9.95;92.01
75247;BME280;63844;50.042;19.224;2023-10-08T08:27:43;99408.14;;;9.92;91.44
75247;BME280;63844;50.042;19.224;2023-10-08T08:29:22;99408.83;;;9.89;90.72
75247;BME280;63844;50.042;19.224;2023-10-08T08:31:04;99410.88;;;9.91;91.03
75247;BME280;63844;50.042;19.224;2023-10-08T08:32:41;99406.86;;;9.96;90.63
75247;BME280;63844;50.042;19.224;2023-10-08T08:34:23;99415.64;;;10.03;90.77
75247;BME280;63844;50.042;19.224;2023-10-08T08:36:00;99417.48;;;10.11;90.17
75247;BME280;63844;50.042;19.224;2023-10-08T08:37:38;99407.63;;;10.20;90.40
75247;BME280;63844;50.042;19.224;2023-10-08T08:39:15;99404.99;;;10.29;90.40
75247;BME280;63844;50.042;19.224;2023-10-08T08:41:05;99399.83;;;10.42;89.97
75247;BME280;63844;50.042;19.224;2023-10-08T08:42:46;99400.41;;;10.50;88.62
75247;BME280;63844;50.042;19.224;2023-10-08T08:44:25;99411.59;;;10.62;89.01
75247;BME280;63844;50.042;19.224;2023-10-08T08:46:05;99413.14;;;10.59;87.24
75247;BME280;63844;50.042;19.224;2023-10-08T08:47:43;99407.83;;;10.56;86.96
75247;BME280;63844;50.042;19.224;2023-10-08T08:49:21;99406.15;;;10.58;86.88
75247;BME280;63844;50.042;19.224;2023-10-08T08:50:57;99406.30;;;10.55;86.59
75247;BME280;63844;50.042;19.224;2023-10-08T08:52:36;99411.15;;;10.51;85.14
75247;BME280;63844;50.042;19.224;2023-10-08T08:54:15;99410.37;;;10.61;86.59